createdAt,value
2016-12-01T00:00:27.328Z,1025.56
2016-12-01T00:01:36.324Z,1025.48
2016-12-01T00:02:45.006Z,1025.52
2016-12-01T00:03:53.993Z,1025.56
2016-12-01T00:05:02.976Z,1025.53
2016-12-01T00:06:11.760Z,1025.57
2016-12-01T00:07:20.747Z,1025.61
2016-12-01T00:08:29.744Z,1025.6
2016-12-01T00:09:39.372Z,1025.58
2016-12-01T00:10:48.385Z,1025.59
2016-12-01T00:11:57.377Z,1025.62
2016-12-01T00:13:06.980Z,1025.54
2016-12-01T00:14:15.999Z,1025.6
2016-12-01T00:15:24.980Z,1025.55
2016-12-01T00:16:34.309Z,1025.56
2016-12-01T00:17:43.006Z,1025.53
2016-12-01T00:18:51.999Z,1025.58
2016-12-01T00:20:00.705Z,1025.52
2016-12-01T00:21:09.690Z,1025.57
2016-12-01T00:22:18.690Z,1025.55
2016-12-01T00:23:27.996Z,1025.58
2016-12-01T00:24:36.671Z,1025.57
2016-12-01T00:25:45.720Z,1025.58
2016-12-01T00:26:54.420Z,1025.61
2016-12-01T00:28:04.346Z,1025.56
2016-12-01T00:29:13.491Z,1025.54
2016-12-01T00:30:22.778Z,1025.51
2016-12-01T00:31:32.070Z,1025.54
2016-12-01T00:32:41.073Z,1025.56
2016-12-01T00:33:50.066Z,1025.54
2016-12-01T00:34:59.053Z,1025.55
2016-12-01T00:36:07.767Z,1025.55
2016-12-01T00:37:16.767Z,1025.55
2016-12-01T00:38:26.068Z,1025.58
2016-12-01T00:39:34.759Z,1025.56
2016-12-01T00:40:43.760Z,1025.57
2016-12-01T00:41:52.761Z,1025.54
2016-12-01T00:43:01.436Z,1025.55
2016-12-01T00:44:11.049Z,1025.57
2016-12-01T00:45:20.652Z,1025.59
2016-12-01T00:46:29.970Z,1025.6
2016-12-01T00:47:38.953Z,1025.6
2016-12-01T00:48:47.628Z,1025.65
2016-12-01T00:49:57.231Z,1025.62
2016-12-01T00:51:06.215Z,1025.62
2016-12-01T00:52:15.095Z,1025.59
2016-12-01T00:53:24.395Z,1025.62
2016-12-01T00:54:33.083Z,1025.58
2016-12-01T00:55:42.404Z,1025.55
2016-12-01T00:56:51.702Z,1025.55
2016-12-01T00:58:00.692Z,1025.58
2016-12-01T00:59:09.391Z,1025.62
2016-12-01T01:00:18.676Z,1025.61
2016-12-01T01:01:27.677Z,1025.57
2016-12-01T01:02:36.970Z,1025.56
2016-12-01T01:03:45.649Z,1025.53
2016-12-01T01:04:54.973Z,1025.5
2016-12-01T01:06:03.970Z,1025.49
2016-12-01T01:07:12.960Z,1025.45
2016-12-01T01:08:21.659Z,1025.46
2016-12-01T01:09:30.644Z,1025.46
2016-12-01T01:10:39.634Z,1025.46
2016-12-01T01:11:48.323Z,1025.49
2016-12-01T01:12:57.349Z,1025.44
2016-12-01T01:14:06.363Z,1025.46
2016-12-01T01:15:15.963Z,1025.39
2016-12-01T01:16:25.869Z,1025.33
2016-12-01T01:17:34.871Z,1025.3
2016-12-01T01:18:43.854Z,1025.34
2016-12-01T01:19:53.541Z,1025.33
2016-12-01T01:21:03.132Z,1025.32
2016-12-01T01:22:12.752Z,1025.29
2016-12-01T01:23:22.354Z,1025.24
2016-12-01T01:24:31.045Z,1025.31
2016-12-01T01:25:40.047Z,1025.28
2016-12-01T01:26:49.490Z,1025.28
2016-12-01T01:27:58.507Z,1025.31
2016-12-01T01:29:07.502Z,1025.32
2016-12-01T01:30:16.506Z,1025.3
2016-12-01T01:31:25.514Z,1025.29
2016-12-01T01:32:34.527Z,1025.32
2016-12-01T01:33:43.825Z,1025.31
2016-12-01T01:34:53.740Z,1025.28
2016-12-01T01:36:03.042Z,1025.22
2016-12-01T01:37:12.045Z,1025.21
2016-12-01T01:38:21.087Z,1025.18
2016-12-01T01:39:30.070Z,1025.19
2016-12-01T01:40:39.684Z,1025.22
2016-12-01T01:41:48.990Z,1025.25
2016-12-01T01:42:57.672Z,1025.27
2016-12-01T01:44:07.013Z,1025.27
2016-12-01T01:45:15.701Z,1025.26
2016-12-01T01:46:24.681Z,1025.25
2016-12-01T01:47:34.282Z,1025.25
2016-12-01T01:48:43.272Z,1025.27
2016-12-01T01:49:51.962Z,1025.24
2016-12-01T01:51:01.257Z,1025.23
2016-12-01T01:52:10.562Z,1025.16
2016-12-01T01:53:19.249Z,1025.17
2016-12-01T01:54:28.547Z,1025.18
2016-12-01T01:55:37.532Z,1025.24
2016-12-01T01:56:46.221Z,1025.21
2016-12-01T01:57:54.906Z,1025.15
2016-12-01T01:59:03.586Z,1025.11
2016-12-01T02:00:12.283Z,1025.11
2016-12-01T02:01:21.903Z,1025.16
2016-12-01T02:02:30.961Z,1025.14
2016-12-01T02:03:39.949Z,1025.17
2016-12-01T02:04:48.627Z,1025.12
2016-12-01T02:05:57.924Z,1025.12
2016-12-01T02:07:07.527Z,1025.08
2016-12-01T02:08:16.236Z,1025.08
2016-12-01T02:09:25.552Z,1025.04
2016-12-01T02:10:34.531Z,1025.05
2016-12-01T02:11:43.510Z,1025.06
2016-12-01T02:12:52.201Z,1025.06
2016-12-01T02:14:01.502Z,1025.09
2016-12-01T02:15:10.237Z,1025.04
2016-12-01T02:16:19.238Z,1025.03
2016-12-01T02:17:27.922Z,1025
2016-12-01T02:18:37.062Z,1024.95
2016-12-01T02:19:46.059Z,1024.98
2016-12-01T02:20:55.051Z,1024.96
2016-12-01T02:22:04.384Z,1024.9
2016-12-01T02:23:13.687Z,1024.91
2016-12-01T02:24:23.330Z,1024.93
2016-12-01T02:25:32.016Z,1024.91
2016-12-01T02:26:40.734Z,1024.92
2016-12-01T02:27:50.091Z,1024.89
2016-12-01T02:28:58.777Z,1024.91
2016-12-01T02:30:08.370Z,1024.91
2016-12-01T02:31:17.349Z,1024.87
2016-12-01T02:32:26.349Z,1024.87
2016-12-01T02:33:35.642Z,1024.88
2016-12-01T02:34:45.258Z,1024.88
2016-12-01T02:35:54.575Z,1024.93
2016-12-01T02:37:03.872Z,1024.92
2016-12-01T02:38:12.875Z,1024.96
2016-12-01T02:39:22.795Z,1024.87
2016-12-01T02:40:31.811Z,1024.94
2016-12-01T02:41:41.094Z,1024.9
2016-12-01T02:42:49.811Z,1024.95
2016-12-01T02:43:58.818Z,1024.91
2016-12-01T02:45:08.108Z,1024.88
2016-12-01T02:46:17.744Z,1024.86
2016-12-01T02:47:26.735Z,1024.88
2016-12-01T02:48:35.722Z,1024.89
2016-12-01T02:49:44.463Z,1024.86
2016-12-01T02:50:53.473Z,1024.85
2016-12-01T02:52:02.496Z,1024.83
2016-12-01T02:53:11.658Z,1024.83
2016-12-01T02:54:20.641Z,1024.87
2016-12-01T02:55:29.624Z,1024.86
2016-12-01T02:56:38.923Z,1024.84
2016-12-01T02:57:47.910Z,1024.81
2016-12-01T02:58:56.915Z,1024.75
2016-12-01T03:00:05.903Z,1024.74
2016-12-01T03:01:14.908Z,1024.69
2016-12-01T03:02:23.598Z,1024.72
2016-12-01T03:03:32.901Z,1024.68
2016-12-01T03:04:42.506Z,1024.64
2016-12-01T03:05:51.497Z,1024.66
2016-12-01T03:07:01.399Z,1024.66
2016-12-01T03:08:10.711Z,1024.66
2016-12-01T03:09:19.397Z,1024.66
2016-12-01T03:10:28.539Z,1024.66
2016-12-01T03:11:38.448Z,1024.62
2016-12-01T03:12:47.466Z,1024.59
2016-12-01T03:13:56.466Z,1024.53
2016-12-01T03:15:05.463Z,1024.57
2016-12-01T03:16:14.151Z,1024.59
2016-12-01T03:17:22.837Z,1024.5
2016-12-01T03:18:31.516Z,1024.51
2016-12-01T03:19:40.514Z,1024.48
2016-12-01T03:20:49.512Z,1024.47
2016-12-01T03:21:58.602Z,1024.52
2016-12-01T03:23:07.900Z,1024.48
2016-12-01T03:24:17.811Z,1024.45
2016-12-01T03:25:27.108Z,1024.56
2016-12-01T03:26:36.118Z,1024.56
2016-12-01T03:27:45.121Z,1024.56
2016-12-01T03:28:53.812Z,1024.6
2016-12-01T03:30:02.794Z,1024.63
2016-12-01T03:31:11.789Z,1024.69
2016-12-01T03:32:21.087Z,1024.62
2016-12-01T03:33:30.240Z,1024.64
2016-12-01T03:34:39.539Z,1024.57
2016-12-01T03:35:48.837Z,1024.64
2016-12-01T03:36:57.520Z,1024.59
2016-12-01T03:38:07.117Z,1024.53
2016-12-01T03:39:17.029Z,1024.53
2016-12-01T03:40:26.652Z,1024.52
2016-12-01T03:41:35.337Z,1024.5
2016-12-01T03:42:44.025Z,1024.49
2016-12-01T03:43:53.016Z,1024.47
2016-12-01T03:45:02.003Z,1024.45
2016-12-01T03:46:10.977Z,1024.42
2016-12-01T03:47:19.654Z,1024.47
2016-12-01T03:48:28.650Z,1024.44
2016-12-01T03:49:37.943Z,1024.37
2016-12-01T03:50:46.632Z,1024.38
2016-12-01T03:51:55.310Z,1024.36
2016-12-01T03:53:03.996Z,1024.35
2016-12-01T03:54:12.672Z,1024.38
2016-12-01T03:55:21.653Z,1024.41
2016-12-01T03:56:31.243Z,1024.38
2016-12-01T03:57:40.539Z,1024.41
2016-12-01T03:58:49.527Z,1024.38
2016-12-01T03:59:58.209Z,1024.39
2016-12-01T04:01:07.222Z,1024.36
2016-12-01T04:02:16.982Z,1024.36
2016-12-01T04:03:25.969Z,1024.36
2016-12-01T04:04:34.966Z,1024.36
2016-12-01T04:05:44.336Z,1024.34
2016-12-01T04:06:54.032Z,1024.37
2016-12-01T04:08:03.483Z,1024.33
2016-12-01T04:09:12.231Z,1024.3
2016-12-01T04:10:21.691Z,1024.31
2016-12-01T04:11:30.452Z,1024.31
2016-12-01T04:12:39.735Z,1024.3
2016-12-01T04:13:49.096Z,1024.28
2016-12-01T04:14:57.844Z,1024.24
2016-12-01T04:16:07.569Z,1024.21
2016-12-01T04:17:18.136Z,1024.26
2016-12-01T04:18:28.490Z,1024.27
2016-12-01T04:19:37.486Z,1024.21
2016-12-01T04:20:47.084Z,1024.23
2016-12-01T04:21:56.069Z,1024.25
2016-12-01T04:23:05.054Z,1024.19
2016-12-01T04:24:13.736Z,1024.24
2016-12-01T04:25:23.036Z,1024.21
2016-12-01T04:26:31.724Z,1024.19
2016-12-01T04:27:40.713Z,1024.2
2016-12-01T04:28:49.694Z,1024.17
2016-12-01T04:29:59.015Z,1024.19
2016-12-01T04:31:07.697Z,1024.17
2016-12-01T04:32:16.376Z,1024.22
2016-12-01T04:33:25.058Z,1024.17
2016-12-01T04:34:34.094Z,1024.14
2016-12-01T04:35:42.770Z,1024.16
2016-12-01T04:36:51.748Z,1024.16
2016-12-01T04:38:00.751Z,1024.17
2016-12-01T04:39:09.431Z,1024.15
2016-12-01T04:40:18.726Z,1024.17
2016-12-01T04:41:27.721Z,1024.17
2016-12-01T04:42:36.419Z,1024.14
2016-12-01T04:43:45.706Z,1024.14
2016-12-01T04:44:54.715Z,1024.17
2016-12-01T04:46:03.407Z,1024.17
2016-12-01T04:47:12.391Z,1024.17
2016-12-01T04:48:22.387Z,1024.11
2016-12-01T04:49:31.397Z,1024.09
2016-12-01T04:50:41.010Z,1024.05
2016-12-01T04:51:49.760Z,1024.09
2016-12-01T04:52:58.749Z,1024.02
2016-12-01T04:54:07.430Z,1024.05
2016-12-01T04:55:16.439Z,1024.04
2016-12-01T04:56:25.770Z,1024.08
2016-12-01T04:57:34.753Z,1024.07
2016-12-01T04:58:44.656Z,1024.09
2016-12-01T04:59:53.797Z,1024.07
2016-12-01T05:01:02.477Z,1024.09
2016-12-01T05:02:11.777Z,1024.02
2016-12-01T05:03:20.488Z,1024
2016-12-01T05:04:29.162Z,1023.97
2016-12-01T05:05:38.146Z,1023.98
2016-12-01T05:06:47.132Z,1023.94
2016-12-01T05:07:56.136Z,1023.92
2016-12-01T05:09:05.442Z,1023.94
2016-12-01T05:10:14.131Z,1023.95
2016-12-01T05:11:23.109Z,1023.93
2016-12-01T05:12:32.405Z,1023.96
2016-12-01T05:13:41.401Z,1023.95
2016-12-01T05:14:50.410Z,1023.96
2016-12-01T05:15:59.091Z,1023.96
2016-12-01T05:17:08.982Z,1023.95
2016-12-01T05:18:17.980Z,1024.05
2016-12-01T05:19:26.967Z,1024.09
2016-12-01T05:20:35.659Z,1024.07
2016-12-01T05:21:44.653Z,1024.03
2016-12-01T05:22:53.487Z,1024.02
2016-12-01T05:24:02.489Z,1024
2016-12-01T05:25:11.176Z,1023.96
2016-12-01T05:26:20.461Z,1023.91
2016-12-01T05:27:29.450Z,1023.92
2016-12-01T05:28:39.747Z,1023.89
2016-12-01T05:29:48.733Z,1023.91
2016-12-01T05:30:57.442Z,1023.94
2016-12-01T05:32:06.430Z,1023.89
2016-12-01T05:33:15.722Z,1023.88
2016-12-01T05:34:25.118Z,1023.95
2016-12-01T05:35:34.098Z,1023.94
2016-12-01T05:36:42.780Z,1023.95
2016-12-01T05:37:52.075Z,1024
2016-12-01T05:39:01.061Z,1023.97
2016-12-01T05:40:11.265Z,1023.95
2016-12-01T05:41:20.252Z,1023.97
2016-12-01T05:42:29.533Z,1023.98
2016-12-01T05:43:38.266Z,1023.96
2016-12-01T05:44:46.942Z,1024.01
2016-12-01T05:45:56.591Z,1023.98
2016-12-01T05:47:06.495Z,1024
2016-12-01T05:48:15.486Z,1023.98
2016-12-01T05:49:24.528Z,1023.94
2016-12-01T05:50:33.513Z,1023.96
2016-12-01T05:51:43.558Z,1023.99
2016-12-01T05:52:52.853Z,1023.98
2016-12-01T05:54:01.532Z,1023.97
2016-12-01T05:55:10.527Z,1023.93
2016-12-01T05:56:19.527Z,1023.99
2016-12-01T05:57:28.198Z,1023.97
2016-12-01T05:58:37.502Z,1024.01
2016-12-01T05:59:46.507Z,1023.96
2016-12-01T06:00:55.491Z,1023.94
2016-12-01T06:02:04.473Z,1023.88
2016-12-01T06:03:13.464Z,1023.9
2016-12-01T06:04:22.760Z,1023.88
2016-12-01T06:05:31.754Z,1023.83
2016-12-01T06:06:41.050Z,1023.77
2016-12-01T06:07:49.735Z,1023.79
2016-12-01T06:08:59.037Z,1023.75
2016-12-01T06:10:08.331Z,1023.73
2016-12-01T06:11:17.012Z,1023.69
2016-12-01T06:12:26.624Z,1023.62
2016-12-01T06:13:35.928Z,1023.62
2016-12-01T06:14:45.220Z,1023.6
2016-12-01T06:15:54.209Z,1023.6
2016-12-01T06:17:02.926Z,1023.59
2016-12-01T06:18:11.640Z,1023.59
2016-12-01T06:19:20.933Z,1023.55
2016-12-01T06:20:30.403Z,1023.61
2016-12-01T06:21:39.386Z,1023.53
2016-12-01T06:22:48.382Z,1023.53
2016-12-01T06:23:57.088Z,1023.48
2016-12-01T06:25:05.780Z,1023.55
2016-12-01T06:26:14.778Z,1023.53
2016-12-01T06:27:23.765Z,1023.55
2016-12-01T06:28:32.761Z,1023.52
2016-12-01T06:29:42.058Z,1023.55
2016-12-01T06:30:50.774Z,1023.51
2016-12-01T06:31:59.918Z,1023.48
2016-12-01T06:33:08.904Z,1023.52
2016-12-01T06:34:18.511Z,1023.55
2016-12-01T06:35:27.200Z,1023.53
2016-12-01T06:36:36.187Z,1023.55
2016-12-01T06:37:45.488Z,1023.52
2016-12-01T06:38:54.521Z,1023.52
2016-12-01T06:40:03.819Z,1023.53
2016-12-01T06:41:12.822Z,1023.52
2016-12-01T06:42:21.802Z,1023.54
2016-12-01T06:43:31.102Z,1023.6
2016-12-01T06:44:40.412Z,1023.64
2016-12-01T06:45:49.395Z,1023.67
2016-12-01T06:46:58.399Z,1023.66
2016-12-01T06:48:07.078Z,1023.7
2016-12-01T06:49:15.753Z,1023.76
2016-12-01T06:50:25.047Z,1023.77
2016-12-01T06:51:34.078Z,1023.78
2016-12-01T06:52:43.376Z,1023.73
2016-12-01T06:53:52.080Z,1023.76
2016-12-01T06:55:01.108Z,1023.8
2016-12-01T06:56:09.802Z,1023.76
2016-12-01T06:57:18.797Z,1023.77
2016-12-01T06:58:27.480Z,1023.79
2016-12-01T06:59:36.781Z,1023.79
2016-12-01T07:00:46.389Z,1023.79
2016-12-01T07:01:55.063Z,1023.84
2016-12-01T07:03:04.056Z,1023.81
2016-12-01T07:04:13.047Z,1023.8
2016-12-01T07:05:21.762Z,1023.8
2016-12-01T07:06:31.216Z,1023.82
2016-12-01T07:07:39.896Z,1023.78
2016-12-01T07:08:48.921Z,1023.78
2016-12-01T07:09:57.931Z,1023.77
2016-12-01T07:11:06.618Z,1023.77
2016-12-01T07:12:15.600Z,1023.81
2016-12-01T07:13:24.297Z,1023.81
2016-12-01T07:14:33.306Z,1023.81
2016-12-01T07:15:42.021Z,1023.8
2016-12-01T07:16:51.011Z,1023.83
2016-12-01T07:18:00.001Z,1023.8
2016-12-01T07:19:08.687Z,1023.79
2016-12-01T07:20:17.390Z,1023.75
2016-12-01T07:21:26.076Z,1023.79
2016-12-01T07:22:35.084Z,1023.79
2016-12-01T07:23:44.106Z,1023.74
2016-12-01T07:24:52.813Z,1023.77
2016-12-01T07:26:01.515Z,1023.76
2016-12-01T07:27:10.535Z,1023.78
2016-12-01T07:28:19.839Z,1023.73
2016-12-01T07:29:28.839Z,1023.69
2016-12-01T07:30:38.456Z,1023.69
2016-12-01T07:31:47.777Z,1023.65
2016-12-01T07:32:56.478Z,1023.61
2016-12-01T07:34:06.089Z,1023.63
2016-12-01T07:35:15.402Z,1023.62
2016-12-01T07:36:25.014Z,1023.59
2016-12-01T07:37:34.024Z,1023.61
2016-12-01T07:38:42.726Z,1023.64
2016-12-01T07:39:52.032Z,1023.6
2016-12-01T07:41:00.732Z,1023.65
2016-12-01T07:42:09.749Z,1023.57
2016-12-01T07:43:18.433Z,1023.58
2016-12-01T07:44:27.419Z,1023.56
2016-12-01T07:45:36.411Z,1023.52
2016-12-01T07:46:45.565Z,1023.57
2016-12-01T07:47:54.258Z,1023.59
2016-12-01T07:49:03.552Z,1023.57
2016-12-01T07:50:12.556Z,1023.6
2016-12-01T07:51:21.557Z,1023.59
2016-12-01T07:52:30.597Z,1023.6
2016-12-01T07:53:39.894Z,1023.64
2016-12-01T07:54:48.585Z,1023.63
2016-12-01T07:55:57.605Z,1023.61
2016-12-01T07:57:06.302Z,1023.58
2016-12-01T07:58:15.619Z,1023.58
2016-12-01T07:59:24.618Z,1023.58
2016-12-01T08:00:33.312Z,1023.57
2016-12-01T08:01:42.615Z,1023.59
2016-12-01T08:02:51.312Z,1023.63
2016-12-01T08:04:00.467Z,1023.57
2016-12-01T08:05:09.165Z,1023.55
2016-12-01T08:06:17.862Z,1023.51
2016-12-01T08:07:27.477Z,1023.48
2016-12-01T08:08:36.475Z,1023.44
2016-12-01T08:09:45.467Z,1023.43
2016-12-01T08:10:54.180Z,1023.39
2016-12-01T08:12:02.875Z,1023.35
2016-12-01T08:13:11.564Z,1023.4
2016-12-01T08:14:20.868Z,1023.36
2016-12-01T08:15:29.882Z,1023.37
2016-12-01T08:16:39.185Z,1023.35
2016-12-01T08:17:48.477Z,1023.33
2016-12-01T08:18:57.469Z,1023.32
2016-12-01T08:20:06.202Z,1023.37
2016-12-01T08:21:16.119Z,1023.4
2016-12-01T08:22:25.115Z,1023.38
2016-12-01T08:23:34.111Z,1023.38
2016-12-01T08:24:43.429Z,1023.38
2016-12-01T08:25:53.043Z,1023.43
2016-12-01T08:27:02.192Z,1023.43
2016-12-01T08:28:11.512Z,1023.43
2016-12-01T08:29:20.217Z,1023.49
2016-12-01T08:30:29.224Z,1023.56
2016-12-01T08:31:38.544Z,1023.55
2016-12-01T08:32:47.547Z,1023.56
2016-12-01T08:33:57.160Z,1023.55
2016-12-01T08:35:06.777Z,1023.52
2016-12-01T08:36:15.784Z,1023.48
2016-12-01T08:37:24.468Z,1023.48
2016-12-01T08:38:33.481Z,1023.45
2016-12-01T08:39:42.486Z,1023.46
2016-12-01T08:40:52.096Z,1023.45
2016-12-01T08:42:00.795Z,1023.41
2016-12-01T08:43:09.484Z,1023.47
2016-12-01T08:44:18.969Z,1023.41
2016-12-01T08:45:27.657Z,1023.46
2016-12-01T08:46:36.657Z,1023.43
2016-12-01T08:47:45.350Z,1023.41
2016-12-01T08:48:54.350Z,1023.43
2016-12-01T08:50:03.635Z,1023.39
2016-12-01T08:51:12.623Z,1023.47
2016-12-01T08:52:21.353Z,1023.5
2016-12-01T08:53:30.361Z,1023.43
2016-12-01T08:54:39.676Z,1023.41
2016-12-01T08:55:48.521Z,1023.43
2016-12-01T08:56:57.254Z,1023.43
2016-12-01T08:58:06.241Z,1023.43
2016-12-01T08:59:15.544Z,1023.38
2016-12-01T09:00:24.857Z,1023.33
2016-12-01T09:01:33.702Z,1023.37
2016-12-01T09:02:43.340Z,1023.35
2016-12-01T09:03:52.672Z,1023.42
2016-12-01T09:05:01.368Z,1023.42
2016-12-01T09:06:10.358Z,1023.44
2016-12-01T09:07:21.405Z,1023.46
2016-12-01T09:08:30.095Z,1023.46
2016-12-01T09:09:38.781Z,1023.46
2016-12-01T09:10:47.780Z,1023.45
2016-12-01T09:11:56.488Z,1023.42
2016-12-01T09:13:05.636Z,1023.4
2016-12-01T09:14:14.660Z,1023.41
2016-12-01T09:15:23.657Z,1023.44
2016-12-01T09:16:32.364Z,1023.46
2016-12-01T09:17:41.667Z,1023.46
2016-12-01T09:18:50.812Z,1023.43
2016-12-01T09:19:59.809Z,1023.45
2016-12-01T09:21:08.864Z,1023.43
2016-12-01T09:22:17.562Z,1023.41
2016-12-01T09:23:26.865Z,1023.4
2016-12-01T09:24:35.858Z,1023.36
2016-12-01T09:25:44.899Z,1023.35
2016-12-01T09:26:53.614Z,1023.42
2016-12-01T09:28:03.221Z,1023.42
2016-12-01T09:29:12.547Z,1023.28
2016-12-01T09:30:21.392Z,1023.33
2016-12-01T09:31:30.732Z,1023.3
2016-12-01T09:32:39.756Z,1023.26
2016-12-01T09:33:49.429Z,1023.26
2016-12-01T09:34:58.470Z,1023.25
2016-12-01T09:36:07.165Z,1023.24
2016-12-01T09:37:16.469Z,1023.22
2016-12-01T09:38:25.778Z,1023.2
2016-12-01T09:39:34.458Z,1023.21
2016-12-01T09:40:43.477Z,1023.15
2016-12-01T09:41:52.464Z,1023.17
2016-12-01T09:43:01.469Z,1023.17
2016-12-01T09:44:10.504Z,1023.16
2016-12-01T09:45:19.522Z,1023.16
2016-12-01T09:46:28.826Z,1023.18
2016-12-01T09:47:37.818Z,1023.18
2016-12-01T09:48:47.431Z,1023.19
2016-12-01T09:49:56.728Z,1023.17
2016-12-01T09:51:06.732Z,1023.14
2016-12-01T09:52:16.039Z,1023.08
2016-12-01T09:53:26.268Z,1023.06
2016-12-01T09:54:35.571Z,1023.08
2016-12-01T09:55:44.580Z,1023.08
2016-12-01T09:56:53.577Z,1023.03
2016-12-01T09:58:02.895Z,1022.99
2016-12-01T09:59:11.603Z,1022.95
2016-12-01T10:00:20.302Z,1022.99
2016-12-01T10:01:28.994Z,1022.95
2016-12-01T10:02:37.688Z,1022.96
2016-12-01T10:03:46.388Z,1022.97
2016-12-01T10:04:55.546Z,1022.94
2016-12-01T10:06:05.463Z,1022.96
2016-12-01T10:07:14.756Z,1022.93
2016-12-01T10:08:24.063Z,1022.95
2016-12-01T10:09:33.365Z,1022.98
2016-12-01T10:10:42.678Z,1022.94
2016-12-01T10:11:51.980Z,1022.92
2016-12-01T10:13:00.982Z,1022.89
2016-12-01T10:14:09.998Z,1022.86
2016-12-01T10:15:19.013Z,1022.82
2016-12-01T10:16:28.174Z,1022.82
2016-12-01T10:17:37.480Z,1022.83
2016-12-01T10:18:46.158Z,1022.79
2016-12-01T10:19:54.838Z,1022.74
2016-12-01T10:21:04.133Z,1022.73
2016-12-01T10:22:13.170Z,1022.68
2016-12-01T10:23:21.889Z,1022.6
2016-12-01T10:24:31.182Z,1022.54
2016-12-01T10:25:40.507Z,1022.51
2016-12-01T10:26:49.810Z,1022.42
2016-12-01T10:27:59.443Z,1022.45
2016-12-01T10:29:08.441Z,1022.39
2016-12-01T10:30:17.136Z,1022.4
2016-12-01T10:31:26.143Z,1022.37
2016-12-01T10:32:34.820Z,1022.4
2016-12-01T10:33:44.115Z,1022.37
2016-12-01T10:34:52.835Z,1022.3
2016-12-01T10:36:01.825Z,1022.3
2016-12-01T10:37:10.828Z,1022.29
2016-12-01T10:38:20.134Z,1022.3
2016-12-01T10:39:28.824Z,1022.27
2016-12-01T10:40:38.135Z,1022.24
2016-12-01T10:41:47.150Z,1022.25
2016-12-01T10:42:56.141Z,1022.13
2016-12-01T10:44:05.446Z,1022.16
2016-12-01T10:45:14.754Z,1022.12
2016-12-01T10:46:23.757Z,1022.1
2016-12-01T10:47:33.072Z,1022.13
2016-12-01T10:48:42.691Z,1022.07
2016-12-01T10:49:51.683Z,1022.04
2016-12-01T10:51:01.400Z,1022.07
2016-12-01T10:52:10.404Z,1022.08
2016-12-01T10:53:19.415Z,1022.11
2016-12-01T10:54:29.024Z,1022.09
2016-12-01T10:55:38.350Z,1022.16
2016-12-01T10:56:47.958Z,1022.15
2016-12-01T10:57:56.972Z,1022.14
2016-12-01T10:59:05.659Z,1022.11
2016-12-01T11:00:14.358Z,1022.06
2016-12-01T11:01:23.062Z,1022.09
2016-12-01T11:02:32.058Z,1022.16
2016-12-01T11:03:40.760Z,1022.21
2016-12-01T11:04:49.760Z,1022.19
2016-12-01T11:05:58.749Z,1022.24
2016-12-01T11:07:08.047Z,1022.21
2016-12-01T11:08:18.058Z,1022.23
2016-12-01T11:09:27.054Z,1022.23
2016-12-01T11:10:36.368Z,1022.22
2016-12-01T11:11:45.367Z,1022.23
2016-12-01T11:12:54.057Z,1022.27
2016-12-01T11:14:03.836Z,1022.27
2016-12-01T11:15:12.868Z,1022.24
2016-12-01T11:16:21.860Z,1022.21
2016-12-01T11:17:30.572Z,1022.23
2016-12-01T11:18:39.880Z,1022.2
2016-12-01T11:19:49.237Z,1022.24
2016-12-01T11:20:58.256Z,1022.14
2016-12-01T11:22:07.260Z,1022.14
2016-12-01T11:23:16.887Z,1022.16
2016-12-01T11:24:26.199Z,1022.1
2016-12-01T11:25:34.895Z,1022.08
2016-12-01T11:26:43.893Z,1022.11
2016-12-01T11:27:52.598Z,1022.06
2016-12-01T11:29:01.898Z,1022.09
2016-12-01T11:30:10.895Z,1022.05
2016-12-01T11:31:19.929Z,1022.01
2016-12-01T11:32:29.240Z,1021.99
2016-12-01T11:33:37.946Z,1022
2016-12-01T11:34:47.272Z,1021.96
2016-12-01T11:35:56.572Z,1021.97
2016-12-01T11:37:06.222Z,1021.92
2016-12-01T11:38:15.508Z,1021.91
2016-12-01T11:39:25.122Z,1021.88
2016-12-01T11:40:34.112Z,1021.89
2016-12-01T11:41:42.794Z,1021.92
2016-12-01T11:42:51.998Z,1021.95
2016-12-01T11:44:00.729Z,1021.93
2016-12-01T11:45:09.731Z,1021.94
2016-12-01T11:46:18.736Z,1021.9
2016-12-01T11:47:28.044Z,1021.88
2016-12-01T11:48:36.745Z,1021.89
2016-12-01T11:49:45.770Z,1021.88
2016-12-01T11:50:55.379Z,1021.95
2016-12-01T11:52:04.672Z,1021.95
2016-12-01T11:53:13.686Z,1021.92
2016-12-01T11:54:22.396Z,1021.85
2016-12-01T11:59:15.170Z,1021.89
2016-12-01T12:00:24.283Z,1021.86
2016-12-01T12:01:33.274Z,1021.85
2016-12-01T12:02:42.586Z,1021.82
2016-12-01T12:03:51.890Z,1021.88
2016-12-01T12:05:01.058Z,1021.87
2016-12-01T12:06:10.367Z,1021.89
2016-12-01T12:07:19.362Z,1021.87
2016-12-01T12:08:28.351Z,1021.85
2016-12-01T12:09:37.353Z,1021.85
2016-12-01T12:10:46.459Z,1021.8
2016-12-01T12:11:55.778Z,1021.81
2016-12-01T12:13:04.492Z,1021.77
2016-12-01T12:14:13.800Z,1021.74
2016-12-01T12:15:22.481Z,1021.74
2016-12-01T12:16:31.771Z,1021.7
2016-12-01T12:17:41.393Z,1021.7
2016-12-01T12:18:50.068Z,1021.74
2016-12-01T12:19:59.699Z,1021.65
2016-12-01T12:21:08.381Z,1021.62
2016-12-01T12:22:17.678Z,1021.59
2016-12-01T12:23:27.291Z,1021.56
2016-12-01T12:24:36.285Z,1021.52
2016-12-01T12:25:45.269Z,1021.45
2016-12-01T12:26:53.945Z,1021.46
2016-12-01T12:28:03.548Z,1021.44
2016-12-01T12:29:12.550Z,1021.41
2016-12-01T12:30:21.557Z,1021.48
2016-12-01T12:31:30.563Z,1021.4
2016-12-01T12:32:39.914Z,1021.4
2016-12-01T12:33:49.018Z,1021.4
2016-12-01T12:34:57.692Z,1021.37
2016-12-01T12:36:07.030Z,1021.33
2016-12-01T12:37:15.729Z,1021.34
2016-12-01T12:38:24.733Z,1021.23
2016-12-01T12:39:33.743Z,1021.21
2016-12-01T12:40:43.079Z,1021.22
2016-12-01T12:41:51.778Z,1021.2
2016-12-01T12:43:00.783Z,1021.18
2016-12-01T12:44:09.840Z,1021.2
2016-12-01T12:45:19.262Z,1021.14
2016-12-01T12:46:27.988Z,1021.13
2016-12-01T12:47:36.683Z,1021.13
2016-12-01T12:48:45.389Z,1021.11
2016-12-01T12:49:54.410Z,1021.1
2016-12-01T12:51:03.570Z,1021.08
2016-12-01T12:52:12.880Z,1021.09
2016-12-01T12:53:21.589Z,1021.01
2016-12-01T12:54:30.626Z,1021.06
2016-12-01T12:55:39.631Z,1021.11
2016-12-01T12:56:48.344Z,1021.08
2016-12-01T12:57:57.679Z,1021.03
2016-12-01T12:59:06.705Z,1021.08
2016-12-01T13:00:15.398Z,1021.04
2016-12-01T13:01:24.417Z,1021.05
2016-12-01T13:02:33.452Z,1021.09
2016-12-01T13:03:42.490Z,1021.09
2016-12-01T13:04:51.195Z,1021.09
2016-12-01T13:06:00.212Z,1021.02
2016-12-01T13:07:08.905Z,1021.03
2016-12-01T13:08:18.525Z,1021.01
2016-12-01T13:09:27.216Z,1021
2016-12-01T13:10:35.947Z,1021.06
2016-12-01T13:11:44.978Z,1021.05
2016-12-01T13:12:53.969Z,1021.02
2016-12-01T13:14:03.271Z,1021.06
2016-12-01T13:15:12.599Z,1021.01
2016-12-01T13:16:21.298Z,1021.04
2016-12-01T13:17:30.631Z,1021.04
2016-12-01T13:18:39.335Z,1021.07
2016-12-01T13:19:48.049Z,1021.04
2016-12-01T13:20:57.373Z,1021
2016-12-01T13:22:06.079Z,1020.96
2016-12-01T13:23:15.098Z,1020.95
2016-12-01T13:24:23.789Z,1020.99
2016-12-01T13:25:33.111Z,1020.94
2016-12-01T13:26:42.106Z,1020.99
2016-12-01T13:27:51.126Z,1020.97
2016-12-01T13:29:00.113Z,1020.96
2016-12-01T13:30:09.100Z,1020.93
2016-12-01T13:31:17.771Z,1020.96
2016-12-01T13:32:26.467Z,1021.01
2016-12-01T13:33:36.376Z,1020.98
2016-12-01T13:34:45.367Z,1020.99
2016-12-01T13:35:54.681Z,1020.92
2016-12-01T13:37:03.987Z,1020.96
2016-12-01T13:38:12.983Z,1020.96
2016-12-01T13:39:21.668Z,1020.93
2016-12-01T13:40:30.652Z,1020.95
2016-12-01T13:41:39.678Z,1020.94
2016-12-01T13:42:48.840Z,1020.99
2016-12-01T13:43:57.536Z,1020.97
2016-12-01T13:45:06.536Z,1020.98
2016-12-01T13:46:15.236Z,1020.95
2016-12-01T13:47:25.177Z,1020.94
2016-12-01T13:48:34.286Z,1020.96
2016-12-01T13:49:43.964Z,1020.91
2016-12-01T13:50:52.968Z,1020.93
2016-12-01T13:52:01.979Z,1020.93
2016-12-01T13:53:11.899Z,1020.92
2016-12-01T13:54:21.562Z,1020.92
2016-12-01T13:55:30.273Z,1020.88
2016-12-01T13:56:39.267Z,1020.81
2016-12-01T13:57:47.947Z,1020.85
2016-12-01T13:58:57.256Z,1020.87
2016-12-01T14:00:05.953Z,1020.86
2016-12-01T14:01:14.953Z,1020.79
2016-12-01T14:02:24.561Z,1020.78